Time;durP1;ratioP1;P1;durP2;ratioP2;P2;SDS_P1;SDS_P2;PMS_P1;PMS_P2;Temp;Humidity;BMP_temperature;BMP_pressure;BME280_temperature;BME280_humidity;BME280_pressure;Samples;Min_cycle;Max_cycle;Signal;HPM_P1;HPM_P2
2022/08/28 00:00:42;;;;;;;8.98;7.65;;;;;;;;;;4978175;28;20042;-63
2022/08/28 00:03:09;;;;;;;7.05;6.35;;;;;;;;;;4983888;28;20113;-62
2022/08/28 00:05:34;;;;;;;7.10;6.50;;;;;;;;;;4982886;28;20033;-63
2022/08/28 00:08:00;;;;;;;7.43;6.75;;;;;;;;;;4982811;28;20030;-63
2022/08/28 00:10:25;;;;;;;8.70;6.85;;;;;;;;;;4983731;28;20746;-63
2022/08/28 00:12:53;;;;;;;7.18;6.20;;;;;;;;;;4984361;28;20034;-62
2022/08/28 00:15:22;;;;;;;6.97;6.28;;;;;;;;;;4983772;28;20397;-63
2022/08/28 00:17:47;;;;;;;8.15;7.35;;;;;;;;;;4982967;28;20410;-62
2022/08/28 00:20:13;;;;;;;7.10;6.40;;;;;;;;;;4984839;28;20041;-62
2022/08/28 00:22:39;;;;;;;7.85;6.85;;;;;;;;;;4983035;28;20391;-62
2022/08/28 00:25:06;;;;;;;8.25;7.53;;;;;;;;;;4985450;28;20469;-63
2022/08/28 00:30:15;;;;;;;7.38;6.68;;;;;;;;;;4987616;28;20044;-63
2022/08/28 00:32:41;;;;;;;9.57;7.07;;;;;;;;;;4987783;28;20396;-62
2022/08/28 00:35:06;;;;;;;7.43;6.72;;;;;;;;;;4986615;28;20415;-63
2022/08/28 00:37:32;;;;;;;10.73;6.63;;;;;;;;;;4988170;28;20756;-64
2022/08/28 00:39:57;;;;;;;8.10;7.30;;;;;;;;;;4960920;28;20065;-64
2022/08/28 00:42:22;;;;;;;8.05;6.75;;;;;;;;;;4983099;28;20030;-64
2022/08/28 00:44:48;;;;;;;7.40;6.78;;;;;;;;;;4983021;28;20520;-64
2022/08/28 00:47:13;;;;;;;9.75;7.78;;;;;;;;;;4970114;28;20041;-64
2022/08/28 00:49:44;;;;;;;7.43;6.38;;;;;;;;;;4986572;28;20034;-64
2022/08/28 00:52:14;;;;;;;7.25;6.57;;;;;;;;;;4955922;28;20030;-63
2022/08/28 00:54:42;;;;;;;7.93;7.22;;;;;;;;;;4982070;28;20044;-64
2022/08/28 00:57:12;;;;;;;7.88;7.18;;;;;;;;;;4987283;28;20033;-64
2022/08/28 00:59:37;;;;;;;7.40;6.65;;;;;;;;;;4986225;28;20105;-63
2022/08/28 01:02:02;;;;;;;8.68;7.63;;;;;;;;;;4985418;28;20548;-64
2022/08/28 01:04:31;;;;;;;6.82;6.00;;;;;;;;;;4986071;28;20449;-64
2022/08/28 01:06:56;;;;;;;7.55;6.75;;;;;;;;;;4981969;28;20343;-63
2022/08/28 01:09:24;;;;;;;9.48;7.13;;;;;;;;;;4983563;28;20496;-63
2022/08/28 01:11:51;;;;;;;7.80;6.85;;;;;;;;;;4986440;28;20024;-63
2022/08/28 01:14:18;;;;;;;8.52;7.72;;;;;;;;;;4986997;28;20030;-63
2022/08/28 01:16:45;;;;;;;7.05;6.45;;;;;;;;;;4986377;28;20038;-63
2022/08/28 01:19:16;;;;;;;8.40;7.47;;;;;;;;;;4986978;28;20072;-63
2022/08/28 01:22:10;;;;;;;8.48;7.72;;;;;;;;;;4985257;28;20181;-63
2022/08/28 01:24:37;;;;;;;8.27;7.50;;;;;;;;;;4883447;29;20084;-62
2022/08/28 01:27:02;;;;;;;8.40;7.40;;;;;;;;;;4884253;29;20116;-63
2022/08/28 01:29:27;;;;;;;7.63;6.95;;;;;;;;;;4882811;29;20499;-64
2022/08/28 01:31:53;;;;;;;6.80;6.07;;;;;;;;;;4885400;29;20028;-63
2022/08/28 01:34:18;;;;;;;7.50;6.90;;;;;;;;;;4888239;29;20120;-64
2022/08/28 01:36:43;;;;;;;7.82;7.03;;;;;;;;;;4883961;29;20463;-63
2022/08/28 01:39:14;;;;;;;7.97;7.28;;;;;;;;;;4883286;29;20088;-63
2022/08/28 01:41:41;;;;;;;7.95;7.15;;;;;;;;;;4884751;29;20109;-63
2022/08/28 01:44:06;;;;;;;7.13;6.45;;;;;;;;;;4888124;29;20070;-63
2022/08/28 01:46:32;;;;;;;6.68;6.07;;;;;;;;;;4882735;29;20131;-63
2022/08/28 01:48:58;;;;;;;8.25;6.80;;;;;;;;;;4882339;29;20036;-63
2022/08/28 01:51:23;;;;;;;8.35;7.65;;;;;;;;;;4886984;29;20063;-65
2022/08/28 01:53:48;;;;;;;6.45;5.95;;;;;;;;;;4884893;29;20127;-63
2022/08/28 01:56:15;;;;;;;7.30;6.03;;;;;;;;;;4880742;29;20032;-64
2022/08/28 01:58:40;;;;;;;6.38;5.88;;;;;;;;;;4885929;29;20040;-64
2022/08/28 02:01:10;;;;;;;9.50;6.47;;;;;;;;;;4938693;28;20936;-64
2022/08/28 02:03:36;;;;;;;5.97;5.47;;;;;;;;;;4982184;28;20037;-64
2022/08/28 02:06:01;;;;;;;7.70;6.60;;;;;;;;;;4980822;28;20057;-63
2022/08/28 02:08:26;;;;;;;6.47;5.88;;;;;;;;;;4984731;28;20049;-64
2022/08/28 02:10:52;;;;;;;7.75;6.30;;;;;;;;;;4985142;28;20398;-64
2022/08/28 02:13:17;;;;;;;6.70;6.07;;;;;;;;;;4981041;28;20460;-64
2022/08/28 02:15:42;;;;;;;8.38;5.75;;;;;;;;;;4982154;28;20030;-63
2022/08/28 02:18:08;;;;;;;7.63;6.60;;;;;;;;;;4985536;28;20041;-63
2022/08/28 02:20:34;;;;;;;6.90;6.40;;;;;;;;;;4966267;28;20413;-64
2022/08/28 02:23:00;;;;;;;7.40;6.60;;;;;;;;;;4980796;28;20026;-63
2022/08/28 02:25:26;;;;;;;7.68;6.75;;;;;;;;;;4980677;28;20536;-64
2022/08/28 02:27:51;;;;;;;7.93;6.65;;;;;;;;;;4981832;28;20042;-64
2022/08/28 02:30:16;;;;;;;8.35;6.75;;;;;;;;;;4966323;28;20117;-64
2022/08/28 02:32:42;;;;;;;7.30;6.15;;;;;;;;;;4979585;28;20037;-64
2022/08/28 02:35:09;;;;;;;6.32;5.82;;;;;;;;;;4980586;28;20023;-64
2022/08/28 02:37:35;;;;;;;6.85;6.35;;;;;;;;;;4981234;28;20030;-64
2022/08/28 02:40:00;;;;;;;10.32;6.43;;;;;;;;;;4980797;28;20041;-64
2022/08/28 02:42:26;;;;;;;6.55;5.80;;;;;;;;;;4980010;28;20038;-64
2022/08/28 02:44:51;;;;;;;7.45;5.70;;;;;;;;;;4980442;28;20483;-64
2022/08/28 02:47:17;;;;;;;6.75;6.13;;;;;;;;;;4979140;28;20405;-64
2022/08/28 02:49:43;;;;;;;6.45;5.85;;;;;;;;;;4980546;28;20072;-65
2022/08/28 02:52:08;;;;;;;8.57;5.60;;;;;;;;;;4981805;28;20030;-64
2022/08/28 02:54:34;;;;;;;6.65;5.88;;;;;;;;;;4985620;28;20030;-64
2022/08/28 02:56:59;;;;;;;6.65;5.00;;;;;;;;;;4981028;28;20035;-65
2022/08/28 02:59:25;;;;;;;6.22;5.65;;;;;;;;;;4980638;28;20503;-64
2022/08/28 03:01:50;;;;;;;6.55;6.05;;;;;;;;;;4984592;28;20030;-65
2022/08/28 03:04:16;;;;;;;7.55;5.32;;;;;;;;;;4985648;28;20605;-64
2022/08/28 03:06:41;;;;;;;6.63;6.05;;;;;;;;;;4979891;28;20026;-64
2022/08/28 03:09:06;;;;;;;6.72;5.95;;;;;;;;;;4981721;28;20690;-64
2022/08/28 03:11:32;;;;;;;6.75;6.15;;;;;;;;;;4984738;28;20050;-65
2022/08/28 03:13:58;;;;;;;7.07;6.00;;;;;;;;;;4984695;28;20027;-65
2022/08/28 03:16:24;;;;;;;6.82;6.22;;;;;;;;;;4984756;28;20415;-64
2022/08/28 03:18:49;;;;;;;6.50;5.90;;;;;;;;;;4984116;28;20034;-65
2022/08/28 03:21:14;;;;;;;7.10;6.00;;;;;;;;;;4984461;28;20038;-65
2022/08/28 03:23:40;;;;;;;7.28;6.55;;;;;;;;;;4984235;28;20484;-63
2022/08/28 03:26:09;;;;;;;6.85;6.22;;;;;;;;;;4985235;28;20650;-65
2022/08/28 03:28:39;;;;;;;8.40;7.65;;;;;;;;;;4984628;28;20117;-65
2022/08/28 03:31:05;;;;;;;7.38;6.47;;;;;;;;;;4984986;28;20476;-65
2022/08/28 03:33:31;;;;;;;7.53;6.75;;;;;;;;;;4983482;28;20054;-65
2022/08/28 03:35:58;;;;;;;6.78;6.18;;;;;;;;;;4985153;28;20027;-65
2022/08/28 03:38:23;;;;;;;7.30;6.63;;;;;;;;;;4983966;28;20030;-64
2022/08/28 03:40:50;;;;;;;7.03;6.43;;;;;;;;;;4984239;28;20504;-65
2022/08/28 03:43:17;;;;;;;13.38;6.03;;;;;;;;;;4984303;28;20445;-65
2022/08/28 03:45:50;;;;;;;7.55;6.40;;;;;;;;;;4983559;28;20077;-65
2022/08/28 03:48:16;;;;;;;6.70;6.13;;;;;;;;;;4982884;28;20112;-65
2022/08/28 03:50:41;;;;;;;7.03;6.32;;;;;;;;;;4984038;28;20105;-64
2022/08/28 03:53:06;;;;;;;6.38;5.88;;;;;;;;;;4983613;28;20466;-64
2022/08/28 03:55:32;;;;;;;6.45;5.95;;;;;;;;;;4987821;28;20034;-64
2022/08/28 03:57:57;;;;;;;7.03;5.88;;;;;;;;;;4988252;28;20560;-65
2022/08/28 04:00:22;;;;;;;6.70;6.20;;;;;;;;;;4988336;28;20117;-65
2022/08/28 04:02:48;;;;;;;7.03;6.32;;;;;;;;;;4971302;28;20097;-64
2022/08/28 04:05:13;;;;;;;7.57;6.88;;;;;;;;;;4983312;28;20117;-65
2022/08/28 04:07:38;;;;;;;6.82;6.20;;;;;;;;;;4982241;28;20544;-64
2022/08/28 04:10:04;;;;;;;7.40;6.78;;;;;;;;;;4966475;28;20049;-64
2022/08/28 04:12:30;;;;;;;7.68;6.40;;;;;;;;;;4987995;28;20035;-65
2022/08/28 04:14:55;;;;;;;7.55;6.80;;;;;;;;;;4987117;28;20392;-65
2022/08/28 04:17:21;;;;;;;7.10;6.40;;;;;;;;;;4987714;28;20038;-64
2022/08/28 04:19:46;;;;;;;7.20;6.15;;;;;;;;;;4986841;28;20480;-65
2022/08/28 04:22:11;;;;;;;8.00;7.20;;;;;;;;;;4987917;28;20132;-64
2022/08/28 04:24:37;;;;;;;6.82;6.20;;;;;;;;;;4987050;28;20034;-64
2022/08/28 04:27:02;;;;;;;6.57;5.80;;;;;;;;;;4961600;28;20031;-64
2022/08/28 04:29:29;;;;;;;6.78;6.18;;;;;;;;;;4987134;28;20480;-65
2022/08/28 04:31:55;;;;;;;8.45;7.78;;;;;;;;;;4987665;28;20828;-64
2022/08/28 04:34:20;;;;;;;7.60;6.38;;;;;;;;;;4987063;28;20096;-65
2022/08/28 04:36:48;;;;;;;8.20;6.68;;;;;;;;;;4987762;28;20404;-65
2022/08/28 04:39:14;;;;;;;7.95;7.15;;;;;;;;;;4987290;28;20061;-65
2022/08/28 04:41:39;;;;;;;7.68;6.90;;;;;;;;;;4987966;28;20129;-65
2022/08/28 04:44:05;;;;;;;7.32;6.63;;;;;;;;;;4988089;28;20041;-64
2022/08/28 04:46:30;;;;;;;7.38;6.68;;;;;;;;;;4987306;28;20440;-64
2022/08/28 04:48:56;;;;;;;7.97;7.28;;;;;;;;;;4986546;28;20057;-63
2022/08/28 04:51:22;;;;;;;8.80;7.78;;;;;;;;;;4986846;28;20069;-64
2022/08/28 04:53:47;;;;;;;7.85;7.15;;;;;;;;;;4986804;28;20453;-64
2022/08/28 04:56:13;;;;;;;7.28;6.63;;;;;;;;;;4974574;28;20026;-66
2022/08/28 04:58:38;;;;;;;10.32;7.68;;;;;;;;;;4986793;28;20587;-65
2022/08/28 05:01:14;;;;;;;9.38;7.05;;;;;;;;;;4986857;28;20034;-64
2022/08/28 05:03:40;;;;;;;8.57;7.72;;;;;;;;;;4987114;28;20018;-64
2022/08/28 05:06:06;;;;;;;8.02;7.30;;;;;;;;;;4987001;28;20025;-63
2022/08/28 05:08:31;;;;;;;8.13;7.32;;;;;;;;;;4987164;28;20034;-64
2022/08/28 05:10:57;;;;;;;7.60;6.47;;;;;;;;;;4986165;28;20037;-64
2022/08/28 05:13:23;;;;;;;7.15;6.45;;;;;;;;;;4986931;28;20028;-65
2022/08/28 05:15:49;;;;;;;8.23;7.45;;;;;;;;;;4986624;28;20061;-63
2022/08/28 05:18:15;;;;;;;7.22;6.63;;;;;;;;;;4986372;28;20046;-64
2022/08/28 05:20:42;;;;;;;7.13;6.43;;;;;;;;;;4968703;28;20053;-64
2022/08/28 05:23:08;;;;;;;9.48;7.00;;;;;;;;;;4986401;28;20029;-64
2022/08/28 05:25:34;;;;;;;8.65;7.10;;;;;;;;;;4987067;28;20125;-64
2022/08/28 05:28:00;;;;;;;9.07;7.78;;;;;;;;;;4986833;28;20233;-64
2022/08/28 05:30:25;;;;;;;7.05;6.45;;;;;;;;;;4984442;28;20476;-64
2022/08/28 05:32:50;;;;;;;8.18;7.55;;;;;;;;;;4981463;28;20611;-64
2022/08/28 05:35:16;;;;;;;10.30;7.03;;;;;;;;;;4983450;28;20553;-64
2022/08/28 05:37:41;;;;;;;7.80;7.20;;;;;;;;;;4986389;28;20038;-64
2022/08/28 05:40:06;;;;;;;7.97;7.25;;;;;;;;;;4985855;28;20042;-64
2022/08/28 05:42:32;;;;;;;8.55;7.75;;;;;;;;;;4986139;28;20069;-63
2022/08/28 05:44:58;;;;;;;8.52;7.70;;;;;;;;;;4985805;28;20077;-64
2022/08/28 05:47:23;;;;;;;8.95;6.93;;;;;;;;;;4986287;28;20026;-65
2022/08/28 05:49:48;;;;;;;8.70;7.70;;;;;;;;;;4968131;28;20022;-64
2022/08/28 05:52:14;;;;;;;6.85;6.25;;;;;;;;;;4986458;28;20586;-64
2022/08/28 05:54:39;;;;;;;8.23;6.72;;;;;;;;;;4985805;28;20058;-64
2022/08/28 05:57:05;;;;;;;9.80;7.90;;;;;;;;;;4986658;28;20042;-64
2022/08/28 05:59:30;;;;;;;8.70;7.65;;;;;;;;;;4985438;28;20034;-64
2022/08/28 06:01:56;;;;;;;8.98;8.07;;;;;;;;;;4986915;28;20109;-64
2022/08/28 06:04:24;;;;;;;8.77;7.40;;;;;;;;;;4985993;28;20069;-64
2022/08/28 06:06:50;;;;;;;9.13;8.10;;;;;;;;;;4985996;28;20026;-64
2022/08/28 06:09:19;;;;;;;9.00;8.10;;;;;;;;;;4984934;28;20380;-64
2022/08/28 06:11:45;;;;;;;8.57;7.80;;;;;;;;;;4985822;28;20034;-64
2022/08/28 06:14:12;;;;;;;9.05;8.18;;;;;;;;;;4985510;28;20030;-64
2022/08/28 06:16:38;;;;;;;8.90;8.05;;;;;;;;;;4984000;28;20034;-63
2022/08/28 06:19:04;;;;;;;8.77;7.68;;;;;;;;;;4980305;28;20113;-63
2022/08/28 06:21:29;;;;;;;9.93;7.97;;;;;;;;;;4982330;28;20034;-64
2022/08/28 06:23:54;;;;;;;9.38;7.70;;;;;;;;;;4968150;28;20038;-64
2022/08/28 06:26:20;;;;;;;8.25;7.55;;;;;;;;;;4984996;28;20026;-64
2022/08/28 06:28:45;;;;;;;8.57;7.78;;;;;;;;;;4985962;28;20033;-64
2022/08/28 06:31:10;;;;;;;9.13;8.20;;;;;;;;;;4968156;28;20105;-63
2022/08/28 06:33:36;;;;;;;9.07;8.27;;;;;;;;;;4984899;28;20074;-64
2022/08/28 06:36:02;;;;;;;8.27;7.38;;;;;;;;;;4980694;28;20026;-64
2022/08/28 06:38:28;;;;;;;9.35;8.38;;;;;;;;;;4980342;28;20030;-64
2022/08/28 06:40:54;;;;;;;9.05;8.15;;;;;;;;;;4982206;28;20116;-64
2022/08/28 06:43:21;;;;;;;10.70;8.43;;;;;;;;;;4980214;28;20037;-64
2022/08/28 06:45:47;;;;;;;17.75;12.70;;;;;;;;;;4983119;28;20069;-64
2022/08/28 06:48:18;;;;;;;21.67;13.32;;;;;;;;;;4986038;28;20034;-63
2022/08/28 06:50:45;;;;;;;17.50;11.45;;;;;;;;;;4985199;28;20456;-62
2022/08/28 06:53:12;;;;;;;14.13;10.63;;;;;;;;;;4985932;28;20027;-63
2022/08/28 06:55:37;;;;;;;8.55;7.65;;;;;;;;;;4984743;28;20100;-63
2022/08/28 06:58:03;;;;;;;14.05;12.55;;;;;;;;;;4983057;28;20038;-62
2022/08/28 07:00:28;;;;;;;10.70;9.80;;;;;;;;;;4979130;28;20034;-64
2022/08/28 07:02:54;;;;;;;13.40;12.25;;;;;;;;;;4982148;28;20033;-64
2022/08/28 07:05:19;;;;;;;11.20;10.18;;;;;;;;;;4979611;28;20034;-63
2022/08/28 07:07:44;;;;;;;8.23;7.45;;;;;;;;;;4955259;28;20448;-64
2022/08/28 07:10:10;;;;;;;8.48;7.57;;;;;;;;;;4982205;28;20119;-62
2022/08/28 07:12:35;;;;;;;7.40;6.80;;;;;;;;;;4980018;28;20113;-62
2022/08/28 07:15:03;;;;;;;8.57;7.57;;;;;;;;;;4982682;28;20041;-62
2022/08/28 07:17:28;;;;;;;8.05;7.20;;;;;;;;;;4984544;28;20492;-62
2022/08/28 07:19:53;;;;;;;9.48;7.88;;;;;;;;;;4968196;28;20034;-63
2022/08/28 07:22:18;;;;;;;8.32;7.32;;;;;;;;;;4982889;28;20549;-64
2022/08/28 07:24:44;;;;;;;10.23;7.80;;;;;;;;;;4980987;28;20645;-64
2022/08/28 07:27:09;;;;;;;8.77;7.85;;;;;;;;;;4981744;28;20030;-64
2022/08/28 07:29:34;;;;;;;8.50;6.82;;;;;;;;;;4984288;28;20106;-62
2022/08/28 07:32:02;;;;;;;8.73;7.03;;;;;;;;;;4980120;28;20026;-64
2022/08/28 07:34:27;;;;;;;8.25;7.60;;;;;;;;;;4981176;28;20059;-65
2022/08/28 07:36:53;;;;;;;8.30;7.47;;;;;;;;;;4979531;28;20136;-70
2022/08/28 07:39:18;;;;;;;7.88;7.07;;;;;;;;;;4965441;28;20384;-69
2022/08/28 07:41:45;;;;;;;7.85;7.20;;;;;;;;;;4984552;28;20081;-70
2022/08/28 07:46:57;;;;;;;8.95;8.23;;;;;;;;;;4981291;28;20086;-69
2022/08/28 07:49:23;;;;;;;7.70;7.05;;;;;;;;;;4984343;28;20194;-70
2022/08/28 07:51:48;;;;;;;8.20;7.40;;;;;;;;;;4984083;28;20089;-70
2022/08/28 07:54:14;;;;;;;8.88;7.88;;;;;;;;;;4984586;28;20038;-69
2022/08/28 07:56:39;;;;;;;9.23;8.07;;;;;;;;;;4982770;28;20570;-70
2022/08/28 07:59:06;;;;;;;10.85;8.95;;;;;;;;;;4982843;28;20034;-69
2022/08/28 08:01:35;;;;;;;8.88;8.13;;;;;;;;;;4978378;28;20046;-71
2022/08/28 08:04:01;;;;;;;8.25;7.45;;;;;;;;;;4978169;28;20430;-70
2022/08/28 08:06:26;;;;;;;8.88;8.27;;;;;;;;;;4981030;28;20030;-70
2022/08/28 08:08:52;;;;;;;7.78;7.13;;;;;;;;;;4964303;28;20443;-69
2022/08/28 08:11:19;;;;;;;8.43;7.63;;;;;;;;;;4983470;28;20387;-69
2022/08/28 08:13:45;;;;;;;7.55;6.95;;;;;;;;;;4984970;28;20126;-69
2022/08/28 08:16:12;;;;;;;8.00;7.20;;;;;;;;;;4967371;28;20133;-69
2022/08/28 08:18:39;;;;;;;7.60;6.97;;;;;;;;;;4984370;28;20489;-70
2022/08/28 08:21:05;;;;;;;8.80;8.10;;;;;;;;;;4984508;28;20026;-69
2022/08/28 08:23:33;;;;;;;7.80;7.07;;;;;;;;;;4982272;28;20646;-69
2022/08/28 08:26:01;;;;;;;9.23;8.43;;;;;;;;;;4979220;28;20030;-70
2022/08/28 08:28:26;;;;;;;8.77;7.95;;;;;;;;;;4953971;28;20042;-69
2022/08/28 08:31:06;;;;;;;8.50;7.60;;;;;;;;;;4980880;28;20030;-69
2022/08/28 08:33:31;;;;;;;8.60;7.85;;;;;;;;;;4960602;28;20054;-69
2022/08/28 08:35:57;;;;;;;8.43;7.65;;;;;;;;;;4981840;28;20035;-69
2022/08/28 08:38:23;;;;;;;10.20;8.00;;;;;;;;;;4977346;28;20444;-69
2022/08/28 08:40:48;;;;;;;9.50;8.73;;;;;;;;;;4985209;28;20031;-69
2022/08/28 08:43:15;;;;;;;8.32;7.63;;;;;;;;;;4986648;28;20030;-70
2022/08/28 08:45:42;;;;;;;8.02;7.38;;;;;;;;;;4969440;28;20044;-71
2022/08/28 08:48:12;;;;;;;9.60;8.70;;;;;;;;;;4986818;28;20378;-60
2022/08/28 08:50:40;;;;;;;9.75;8.48;;;;;;;;;;4987612;28;20116;-67
2022/08/28 08:53:05;;;;;;;9.35;8.40;;;;;;;;;;4984490;28;20030;-71
2022/08/28 08:55:34;;;;;;;8.90;8.15;;;;;;;;;;4981793;28;20052;-65
2022/08/28 08:58:15;;;;;;;9.50;8.60;;;;;;;;;;4983621;28;20030;-61
2022/08/28 09:00:59;;;;;;;8.20;7.15;;;;;;;;;;4980904;28;20364;-62
2022/08/28 09:03:31;;;;;;;7.95;7.30;;;;;;;;;;4966415;28;20030;-59
2022/08/28 09:06:01;;;;;;;7.60;6.93;;;;;;;;;;4985854;28;20030;-63
2022/08/28 09:08:26;;;;;;;7.47;6.82;;;;;;;;;;4985430;28;20477;-61
2022/08/28 09:11:03;;;;;;;8.60;7.43;;;;;;;;;;4982517;28;20037;-60
2022/08/28 09:13:28;;;;;;;7.68;6.97;;;;;;;;;;4982791;28;20422;-61
2022/08/28 09:15:53;;;;;;;9.98;8.93;;;;;;;;;;4986568;28;20031;-63
2022/08/28 09:18:27;;;;;;;8.00;7.32;;;;;;;;;;4985896;28;20828;-65
2022/08/28 09:20:53;;;;;;;8.63;7.55;;;;;;;;;;4968175;28;20087;-65
2022/08/28 09:23:20;;;;;;;7.35;6.75;;;;;;;;;;4985211;28;20116;-62
2022/08/28 09:25:48;;;;;;;8.88;8.02;;;;;;;;;;4985598;28;20031;-62
2022/08/28 09:28:17;;;;;;;7.57;6.93;;;;;;;;;;4985824;28;20034;-62
2022/08/28 09:30:42;;;;;;;6.93;6.43;;;;;;;;;;4984657;28;20038;-62
2022/08/28 09:33:08;;;;;;;6.32;5.90;;;;;;;;;;4984068;28;21003;-63
2022/08/28 09:35:36;;;;;;;5.88;5.38;;;;;;;;;;4981692;28;20030;-61
2022/08/28 09:38:21;;;;;;;7.00;6.32;;;;;;;;;;4983421;28;20102;-61
2022/08/28 09:43:32;;;;;;;6.38;5.72;;;;;;;;;;4986239;28;20113;-61
2022/08/28 09:46:03;;;;;;;6.43;5.82;;;;;;;;;;4982184;28;20118;-61
2022/08/28 09:48:31;;;;;;;5.95;5.45;;;;;;;;;;4981462;28;20529;-65
2022/08/28 09:51:01;;;;;;;6.05;5.55;;;;;;;;;;4985570;28;20026;-63
2022/08/28 09:53:29;;;;;;;5.45;5.05;;;;;;;;;;4985812;28;20415;-64
2022/08/28 09:55:54;;;;;;;5.47;5.07;;;;;;;;;;4984676;28;20033;-64
2022/08/28 09:58:21;;;;;;;5.53;4.95;;;;;;;;;;4985754;28;20027;-64
2022/08/28 10:00:56;;;;;;;6.38;5.65;;;;;;;;;;4967167;28;20038;-63
2022/08/28 10:03:27;;;;;;;5.88;5.45;;;;;;;;;;4985647;28;20014;-64
2022/08/28 10:06:10;;;;;;;4.80;4.50;;;;;;;;;;4984621;28;20085;-63
2022/08/28 10:09:01;;;;;;;4.45;4.25;;;;;;;;;;4985457;28;20038;-64
2022/08/28 10:11:26;;;;;;;4.82;4.53;;;;;;;;;;4986416;28;20110;-61
2022/08/28 10:14:00;;;;;;;4.93;4.60;;;;;;;;;;4985610;28;20465;-65
2022/08/28 10:16:31;;;;;;;4.80;4.50;;;;;;;;;;4981692;28;20419;-68
2022/08/28 10:19:05;;;;;;;4.75;4.45;;;;;;;;;;4981192;28;20026;-67
2022/08/28 10:21:40;;;;;;;4.72;4.35;;;;;;;;;;4985726;28;20117;-67
2022/08/28 10:24:05;;;;;;;4.78;4.30;;;;;;;;;;4985418;28;20503;-68
2022/08/28 10:26:50;;;;;;;5.32;4.93;;;;;;;;;;4981772;28;20146;-68
2022/08/28 10:29:27;;;;;;;4.53;4.22;;;;;;;;;;4979632;28;20488;-62
2022/08/28 10:31:55;;;;;;;5.38;5.07;;;;;;;;;;4982265;28;20038;-62
2022/08/28 10:34:26;;;;;;;6.25;5.80;;;;;;;;;;4980106;28;20054;-62
2022/08/28 10:37:17;;;;;;;5.55;5.13;;;;;;;;;;4984898;28;20033;-62
2022/08/28 10:39:49;;;;;;;6.05;5.57;;;;;;;;;;4897788;29;20051;-62
2022/08/28 10:42:18;;;;;;;7.22;5.68;;;;;;;;;;4893869;29;20407;-62
2022/08/28 10:44:49;;;;;;;5.65;5.15;;;;;;;;;;4896176;29;20639;-62
2022/08/28 10:47:16;;;;;;;5.20;4.85;;;;;;;;;;4900092;29;20081;-63
2022/08/28 10:49:44;;;;;;;5.22;4.82;;;;;;;;;;4899698;29;20040;-63
2022/08/28 10:52:11;;;;;;;5.47;5.15;;;;;;;;;;4893744;29;20459;-65
2022/08/28 10:54:46;;;;;;;4.85;4.55;;;;;;;;;;4893412;29;20139;-66
2022/08/28 10:57:14;;;;;;;5.85;5.45;;;;;;;;;;4894669;29;20044;-65
2022/08/28 10:59:40;;;;;;;5.38;4.95;;;;;;;;;;4895697;29;20418;-65
2022/08/28 11:02:07;;;;;;;5.85;5.45;;;;;;;;;;4893483;29;20477;-65
2022/08/28 11:04:33;;;;;;;5.35;5.05;;;;;;;;;;4893720;29;20494;-66
2022/08/28 11:07:01;;;;;;;6.05;5.55;;;;;;;;;;4899763;29;20463;-65
2022/08/28 11:09:41;;;;;;;7.00;6.40;;;;;;;;;;4897276;29;20638;-67
2022/08/28 11:12:26;;;;;;;6.18;5.78;;;;;;;;;;4895252;29;20043;-67
2022/08/28 11:14:52;;;;;;;5.95;5.55;;;;;;;;;;4887885;29;20076;-66
2022/08/28 11:17:20;;;;;;;7.45;6.85;;;;;;;;;;4953263;28;20588;-66
2022/08/28 11:19:48;;;;;;;8.00;7.40;;;;;;;;;;4984436;28;20073;-68
2022/08/28 11:22:24;;;;;;;27.35;18.15;;;;;;;;;;4980224;28;20034;-65
2022/08/28 11:25:02;;;;;;;6.80;6.30;;;;;;;;;;4980858;28;20053;-66
2022/08/28 11:27:29;;;;;;;5.45;5.10;;;;;;;;;;4985230;28;20026;-69
2022/08/28 11:29:56;;;;;;;5.05;4.57;;;;;;;;;;4984585;28;20036;-69
2022/08/28 11:32:27;;;;;;;5.32;5.03;;;;;;;;;;4981649;28;20492;-71
2022/08/28 11:35:00;;;;;;;5.82;5.32;;;;;;;;;;4982527;28;20065;-67
2022/08/28 11:37:39;;;;;;;5.20;4.90;;;;;;;;;;4985189;28;20043;-64
2022/08/28 11:40:23;;;;;;;5.88;5.47;;;;;;;;;;4983099;28;20046;-64
2022/08/28 11:42:49;;;;;;;4.72;4.43;;;;;;;;;;4979578;28;20026;-63
2022/08/28 11:45:40;;;;;;;4.97;4.57;;;;;;;;;;4982164;28;20032;-65
2022/08/28 11:48:05;;;;;;;5.20;4.80;;;;;;;;;;4984559;28;20053;-65
2022/08/28 11:50:49;;;;;;;4.93;4.63;;;;;;;;;;4983017;28;20034;-66
2022/08/28 11:53:23;;;;;;;5.28;4.97;;;;;;;;;;4979456;28;20034;-65
2022/08/28 11:55:55;;;;;;;5.07;4.75;;;;;;;;;;4967033;28;20384;-66
2022/08/28 11:58:28;;;;;;;4.82;4.60;;;;;;;;;;4984619;28;20034;-65
2022/08/28 12:00:59;;;;;;;4.77;4.30;;;;;;;;;;4981249;28;20528;-66
2022/08/28 12:03:30;;;;;;;4.40;4.20;;;;;;;;;;4979908;28;20466;-66
2022/08/28 12:05:57;;;;;;;5.50;5.18;;;;;;;;;;4981430;28;20088;-66
2022/08/28 12:08:52;;;;;;;6.85;6.25;;;;;;;;;;4979028;28;20290;-66
2022/08/28 12:11:35;;;;;;;4.63;4.35;;;;;;;;;;4892724;29;20052;-66
2022/08/28 12:14:01;;;;;;;4.83;4.53;;;;;;;;;;4893085;29;20038;-65
2022/08/28 12:16:26;;;;;;;4.97;4.68;;;;;;;;;;4900057;29;20044;-66
2022/08/28 12:18:51;;;;;;;7.85;7.13;;;;;;;;;;4900913;29;20155;-66
2022/08/28 12:21:19;;;;;;;7.32;6.72;;;;;;;;;;4897137;29;20056;-66
2022/08/28 12:24:03;;;;;;;6.03;5.63;;;;;;;;;;4896732;29;20036;-66
2022/08/28 12:26:31;;;;;;;5.30;4.90;;;;;;;;;;4900802;29;20617;-66
2022/08/28 12:29:01;;;;;;;8.23;7.63;;;;;;;;;;4901759;29;20040;-66
2022/08/28 12:34:51;;;;;;;6.22;5.72;;;;;;;;;;4901062;29;20548;-66
2022/08/28 12:37:34;;;;;;;8.48;5.75;;;;;;;;;;4902129;29;20024;-66
2022/08/28 12:40:07;;;;;;;11.32;10.30;;;;;;;;;;4900702;29;20047;-66
2022/08/28 12:42:34;;;;;;;5.72;5.10;;;;;;;;;;4901258;29;20043;-66
2022/08/28 12:45:08;;;;;;;5.07;4.57;;;;;;;;;;4901254;29;20133;-65
2022/08/28 12:47:35;;;;;;;4.65;4.35;;;;;;;;;;4936090;28;20153;-67
2022/08/28 12:50:39;;;;;;;6.45;5.95;;;;;;;;;;4985951;28;20165;-66
2022/08/28 12:53:06;;;;;;;9.00;8.30;;;;;;;;;;4885289;29;20543;-67
2022/08/28 12:55:32;;;;;;;8.43;7.65;;;;;;;;;;4883605;29;20047;-66
2022/08/28 12:57:57;;;;;;;6.80;6.25;;;;;;;;;;4889416;29;20853;-66
2022/08/28 13:00:24;;;;;;;5.85;5.45;;;;;;;;;;4887994;29;20047;-67
2022/08/28 13:02:51;;;;;;;5.07;4.68;;;;;;;;;;4883016;29;20073;-66
2022/08/28 13:05:39;;;;;;;7.97;6.70;;;;;;;;;;4885411;29;20036;-65
2022/08/28 13:08:06;;;;;;;4.75;4.45;;;;;;;;;;4888185;29;20029;-66
2022/08/28 13:10:50;;;;;;;9.00;8.25;;;;;;;;;;4888784;29;20059;-66
2022/08/28 13:13:24;;;;;;;5.88;5.47;;;;;;;;;;4888420;29;20037;-66
2022/08/28 13:15:54;;;;;;;5.07;4.75;;;;;;;;;;4873002;29;20083;-65
2022/08/28 13:18:39;;;;;;;6.15;5.65;;;;;;;;;;4884631;29;20044;-66
2022/08/28 13:21:21;;;;;;;5.97;5.65;;;;;;;;;;4883711;29;20032;-65
2022/08/28 13:23:51;;;;;;;5.90;5.50;;;;;;;;;;4933819;28;20117;-64
2022/08/28 13:26:23;;;;;;;6.22;5.82;;;;;;;;;;4985728;28;20076;-62
2022/08/28 13:28:49;;;;;;;6.05;5.55;;;;;;;;;;4986933;28;20106;-62
2022/08/28 13:31:23;;;;;;;7.03;6.47;;;;;;;;;;4984469;28;20486;-64
2022/08/28 13:34:23;;;;;;;6.38;5.78;;;;;;;;;;4981138;28;20109;-63
2022/08/28 13:36:51;;;;;;;11.45;9.98;;;;;;;;;;4944378;28;20555;-57
2022/08/28 13:39:17;;;;;;;5.70;5.20;;;;;;;;;;4986197;28;20064;-60
2022/08/28 13:41:44;;;;;;;6.88;5.60;;;;;;;;;;4982022;28;20045;-60
2022/08/28 13:44:19;;;;;;;5.55;4.97;;;;;;;;;;4980998;28;20022;-56
2022/08/28 13:46:45;;;;;;;6.60;6.07;;;;;;;;;;4986638;28;20088;-64
2022/08/28 13:49:10;;;;;;;5.88;5.38;;;;;;;;;;4964060;28;20841;-67
2022/08/28 13:51:36;;;;;;;7.55;5.80;;;;;;;;;;4981151;28;20093;-67
2022/08/28 13:54:01;;;;;;;7.93;7.13;;;;;;;;;;4985272;28;20027;-67
2022/08/28 13:56:27;;;;;;;6.03;5.63;;;;;;;;;;4980749;28;20026;-70
2022/08/28 13:58:52;;;;;;;5.75;5.15;;;;;;;;;;4982218;28;20030;-71
2022/08/28 14:01:19;;;;;;;5.85;5.35;;;;;;;;;;4982651;28;20037;-70
2022/08/28 14:03:44;;;;;;;5.93;5.43;;;;;;;;;;4979964;28;20049;-70
2022/08/28 14:06:15;;;;;;;5.53;5.13;;;;;;;;;;4984369;28;20038;-68
2022/08/28 14:08:42;;;;;;;5.53;5.13;;;;;;;;;;4984630;28;20054;-69
2022/08/28 14:11:08;;;;;;;5.13;4.82;;;;;;;;;;4985015;28;20029;-69
2022/08/28 14:13:33;;;;;;;5.15;4.85;;;;;;;;;;4981569;28;20026;-69
2022/08/28 14:16:02;;;;;;;5.05;4.63;;;;;;;;;;4979477;28;20030;-69
2022/08/28 14:18:27;;;;;;;5.13;4.72;;;;;;;;;;4966687;28;20029;-69
2022/08/28 14:20:52;;;;;;;5.57;5.18;;;;;;;;;;4968460;28;20030;-68
2022/08/28 14:23:18;;;;;;;4.55;4.15;;;;;;;;;;4984615;28;20033;-69
2022/08/28 14:25:44;;;;;;;5.15;4.75;;;;;;;;;;4984589;28;20035;-68
2022/08/28 14:28:10;;;;;;;4.88;4.57;;;;;;;;;;4984493;28;20023;-67
2022/08/28 14:30:40;;;;;;;5.32;4.60;;;;;;;;;;4984658;28;20056;-64
2022/08/28 14:33:05;;;;;;;5.10;4.60;;;;;;;;;;4967287;28;20026;-64
2022/08/28 14:35:30;;;;;;;4.70;4.30;;;;;;;;;;4950424;28;20041;-65
2022/08/28 14:37:56;;;;;;;6.93;5.40;;;;;;;;;;4983061;28;20443;-64
2022/08/28 14:40:21;;;;;;;5.85;4.95;;;;;;;;;;4958365;28;20178;-65
2022/08/28 14:42:47;;;;;;;6.38;4.85;;;;;;;;;;4981828;28;20469;-64
2022/08/28 14:45:12;;;;;;;6.07;5.05;;;;;;;;;;4978743;28;20461;-64
2022/08/28 14:47:38;;;;;;;8.25;5.10;;;;;;;;;;4981283;28;20543;-63
2022/08/28 14:50:03;;;;;;;7.00;5.65;;;;;;;;;;4964872;28;20034;-63
2022/08/28 14:52:28;;;;;;;9.20;5.70;;;;;;;;;;4981952;28;20304;-63
2022/08/28 14:54:54;;;;;;;5.80;5.28;;;;;;;;;;4970381;28;20033;-66
2022/08/28 14:57:19;;;;;;;5.35;4.85;;;;;;;;;;4983867;28;20445;-63
2022/08/28 14:59:45;;;;;;;5.38;4.88;;;;;;;;;;4984416;28;20134;-64